Fort Myers, FL (33965)

6:26 PM EDT on September 02, 2014 (GMT -0400)
Orangewood | Change Station
CLOSE
Current Station
Personal Weather Station
Location: Fort Myers, FL
Elevation: 20 ft
Nearby Weather Stations

Elev 20 ft 26.60 °N, 81.88 °W | Updated 2 seconds ago

Rain
Rain
79.3 °F
Feels Like 84 °F
N
0.0
Wind Variable Wind from West
Gusts 3.0 mph

Today
High -- | Low -- °F
--% Chance of Precip.
Yesterday
High -- | Low -- °F
Precip. -- in
7:07 AM 7:46 PM
First Quarter, 55% visible
Pressure 29.98 in
Visibility 10.0 miles
Clouds Few 6000 ft
Scattered Clouds 8000 ft
Scattered Clouds 9500 ft
Heat Index 84 °F
Dew Point 76 °F
Humidity 90%
Rainfall 0.14 in
Snow Depth Not available.
UV 2 out of 12
Pollen 5.20 out of 12
Air Quality Not available.
Flu Activity Not available.
SPECI KFMY 022204Z 22003KT 10SM FEW060 SCT080 SCT095 26/23 A2998 RMK AO2 LTG DSNT N AND NW T02560233

More Conditions Fewer Conditions

Pressure 29.98 in
Visibility 10.0 miles
Clouds Few 6000 ft
Scattered Clouds 8000 ft
Scattered Clouds 9500 ft
Heat Index 84 °F
Dew Point 76 °F
Humidity 90%
Rainfall 0.14 in
Snow Depth Not available.
UV 2 out of 12
Pollen 5.20 out of 12
Air Quality Not available.
Flu Activity Not available.
SPECI KFMY 022204Z 22003KT 10SM FEW060 SCT080 SCT095 26/23 A2998 RMK AO2 LTG DSNT N AND NW T02560233

More Conditions Fewer Conditions

10-Day Weather Forecast

Almanac

Astronomy

Sep. 02, 2014 Rise Set
Actual Time 7:07 AM EDT 7:46 PM EDT
Civil Twilight 6:44 AM EDT 8:09 PM EDT
Nautical Twilight 6:16 AM EDT 8:37 PM EDT
Astronomical Twilight 5:48 AM EDT 9:05 PM EDT
Moon 2:11 PM EDT 12:25 AM EDT
Length of Visible Light 13h 25m
Length of Day
12h 38m
Tomorrow will be 1m 30s shorter.
First Quarter, 55% of the Moon is Illuminated
Today
First Quarter
Sep 8
Full
Sep 15
Last Quarter
Sep 24
New
Oct 1
First Quarter

Today's Extremes

State Highs State Lows

Community

WunderPhotos

Upload Photos

1,749,788 photos uploaded!

Nearby

Snow Depth

Station Depth Elevation
No new snow has been reported.

Earthquake Activity

City Distance Mag. Time & Date
No recent earthquake activity has been reported nearby.
Minimum magnitude displayed is 2.5.

Coastal Water Temperatures

Place Temperature
Fort Myers, FL 89.1 °F

Nearby Weather Stations